KHTL

Details ICAO KHTL (HTL)
Name ROSCOMMON CO
Region United States
Timezone America/Detroit (UTC-4.0)
Plans Departing 6
Arriving 6
Stats Elevation 1,150 ft / 351 m (AMSL)
Location 44.359274° -84.673189°
Runways 2
Magnetic Variation 6.758° W
Sunrise 2018-05-24 10:04:23 UTC / 2018-05-24 06:04:23 Local
Sunset 2018-05-25 01:09:35 UTC / 2018-05-24 21:09:35 Local
Advertisement - Login to hide

Runways

ID Width Length Bearing (true) Bearing (mag) Surface Threshold Offset Overrun Length
09 75 ft / 23 m 3,987 ft / 1,215 m 88.85° 95.61° Asphalt 0 ft / 0 m 0 ft / 0 m
18 100 ft / 30 m 2,203 ft / 671 m 180.00° 186.76° Grass 200 ft / 61 m 0 ft / 0 m
27 75 ft / 23 m 3,987 ft / 1,215 m 268.86° 275.62° Asphalt 0 ft / 0 m 0 ft / 0 m
36 100 ft / 30 m 2,203 ft / 671 m 0.00° 6.76° Grass 200 ft / 61 m 0 ft / 0 m

Map

Weather


0- 5 10 15 20 25 30 35+ Temperature / ° C

Clouds and Precipitation
Forecast for 2018-05-24 12:00 UTC. Updated 3 hours ago

Ground ~20,000 ft ~40,000 ft Winds

METAR

KHTL 241253Z AUTO 00000KT 10SM CLR 19/09 A3023 RMK AO2 SLP233 T01890094

TAF

Not found

Frequencies

Unicom 122.80 MHz CTAF/UNICOM
Warning: Do not use this data for real-world aviation or navigation. No guarantee of current accuracy is given.